Pingtan, China
Current Conditions -  °F | °C
As of 11:00 PM on Thursday 23 Oct 2014 (Local Time) from ZSFZ Reporting Station
Few Clouds Few Clouds  
Wind Chill: 70°   Ceiling: Unl
Heat Index: 70°   Visibility: 6mi
Dew Point: 61°   Wind: 11mph
Humidity: 73%   Direction: 40°NE
Pressure: 30.09"   Gusts: NA
Location:  25.52°N, 119.78°E
Report Text: ZSFZ 231500Z 04005MPS 9999 FEW020 21/16 Q1019 NOSIG
Loading
Personal Weather Stations






























Interactive Weather Map
Tropical Storm Tracking
New forecast layout! Learn more

10-Day Weather Forecast

Advertisements
Track Severe Weather on mobile